Time;durP1;ratioP1;P1;durP2;ratioP2;P2;SDS_P1;SDS_P2;PMS_P1;PMS_P2;Temp;Humidity;BMP_temperature;BMP_pressure;BME280_temperature;BME280_humidity;BME280_pressure;Samples;Min_cycle;Max_cycle;Signal;HPM_P1;HPM_P2
2022/04/02 00:00:06;;;;;;;;;;;2.00;99.90;;;;;;5113832;28;19912;-44
2022/04/02 00:02:32;;;;;;;;;;;1.90;99.90;;;;;;5113741;28;19912;-44
2022/04/02 00:04:57;;;;;;;;;;;2.00;99.90;;;;;;5113985;28;19957;-43
2022/04/02 00:07:23;;;;;;;;;;;2.00;99.90;;;;;;5116106;28;19907;-44
2022/04/02 00:09:48;;;;;;;;;;;2.00;99.90;;;;;;5117971;28;19919;-43
2022/04/02 00:12:14;;;;;;;;;;;2.10;99.90;;;;;;5117855;28;19953;-46
2022/04/02 00:14:39;;;;;;;;;;;2.20;99.90;;;;;;5118178;28;19911;-48
2022/04/02 00:17:05;;;;;;;;;;;2.20;99.90;;;;;;5117881;28;19931;-42
2022/04/02 00:19:31;;;;;;;;;;;2.20;99.90;;;;;;5118618;28;19912;-43
2022/04/02 00:21:57;;;;;;;;;;;2.10;99.90;;;;;;5117995;28;19981;-43
2022/04/02 00:24:22;;;;;;;;;;;1.80;99.90;;;;;;5116775;28;20006;-45
2022/04/02 00:26:48;;;;;;;;;;;1.90;99.90;;;;;;5116577;28;20362;-45
2022/04/02 00:29:13;;;;;;;;;;;1.90;99.90;;;;;;5117857;28;19908;-45
2022/04/02 00:31:40;;;;;;;;;;;2.00;99.90;;;;;;5117845;28;19973;-45
2022/04/02 00:34:06;;;;;;;;;;;2.10;99.90;;;;;;5116119;28;19912;-46
2022/04/02 00:36:37;;;;;;;;;;;2.10;99.90;;;;;;5117367;28;19908;-45
2022/04/02 00:39:03;;;;;;;;;;;2.20;99.90;;;;;;5118029;28;19908;-45
2022/04/02 00:41:29;;;;;;;;;;;2.30;99.90;;;;;;5117208;28;20354;-46
2022/04/02 00:43:55;;;;;;;;;;;2.20;99.90;;;;;;5117215;28;19911;-44
2022/04/02 00:46:21;;;;;;;;;;;2.20;99.90;;;;;;5117449;28;20346;-45
2022/04/02 00:48:47;;;;;;;;;;;2.20;99.90;;;;;;5117500;28;19991;-45
2022/04/02 00:51:15;;;;;;;;;;;2.30;99.90;;;;;;5117188;28;19993;-47
2022/04/02 00:53:46;;;;;;;;;;;2.30;99.90;;;;;;5117284;28;19912;-44
2022/04/02 00:56:12;;;;;;;;;;;2.30;99.90;;;;;;5117027;28;19963;-43
2022/04/02 00:58:39;;;;;;;;;;;2.00;99.90;;;;;;5117372;28;19915;-43
2022/04/02 01:01:06;;;;;;;;;;;2.10;99.90;;;;;;5116877;28;19995;-44
2022/04/02 01:03:32;;;;;;;;;;;2.20;99.90;;;;;;5115825;28;20369;-46
2022/04/02 01:05:57;;;;;;;;;;;2.00;99.90;;;;;;5116772;28;19998;-46
2022/04/02 01:08:23;;;;;;;;;;;2.00;99.90;;;;;;5117195;28;19955;-44
2022/04/02 01:10:48;;;;;;;;;;;2.20;99.90;;;;;;5116721;28;19914;-45
2022/04/02 01:13:16;;;;;;;;;;;2.10;99.90;;;;;;5116967;28;19908;-44
2022/04/02 01:15:41;;;;;;;;;;;2.10;99.90;;;;;;5117041;28;20354;-45
2022/04/02 01:18:07;;;;;;;;;;;2.00;99.90;;;;;;5116038;28;19908;-43
2022/04/02 01:20:33;;;;;;;;;;;2.10;99.90;;;;;;5116913;28;19908;-44
2022/04/02 01:22:59;;;;;;;;;;;1.90;99.90;;;;;;5116529;28;19912;-44
2022/04/02 01:25:25;;;;;;;;;;;2.00;99.90;;;;;;5116663;28;19918;-43
2022/04/02 01:27:50;;;;;;;;;;;2.00;99.90;;;;;;5116818;28;20014;-44
2022/04/02 01:30:16;;;;;;;;;;;2.10;99.90;;;;;;5116601;28;19961;-43
2022/04/02 01:32:42;;;;;;;;;;;2.20;99.90;;;;;;5116515;28;19915;-44
2022/04/02 01:35:08;;;;;;;;;;;2.10;99.90;;;;;;5116655;28;20034;-44
2022/04/02 01:37:34;;;;;;;;;;;2.10;99.90;;;;;;5116276;28;19908;-44
2022/04/02 01:40:00;;;;;;;;;;;2.20;99.90;;;;;;5116119;28;20383;-44
2022/04/02 01:42:26;;;;;;;;;;;2.20;99.90;;;;;;5116453;27;20014;-45
2022/04/02 01:44:52;;;;;;;;;;;2.10;99.90;;;;;;5116185;28;20282;-45
2022/04/02 01:47:18;;;;;;;;;;;2.00;99.90;;;;;;5116749;28;19912;-44
2022/04/02 01:49:44;;;;;;;;;;;2.00;99.90;;;;;;5115947;28;19907;-46
2022/04/02 01:52:09;;;;;;;;;;;2.00;99.90;;;;;;5116478;28;20363;-44
2022/04/02 01:54:35;;;;;;;;;;;2.10;99.90;;;;;;5115919;28;20231;-44
2022/04/02 01:57:00;;;;;;;;;;;1.90;99.90;;;;;;5115875;28;19955;-43
2022/04/02 01:59:26;;;;;;;;;;;1.80;99.90;;;;;;5116172;28;20376;-44
2022/04/02 02:01:51;;;;;;;;;;;1.80;99.90;;;;;;5115769;28;19911;-44
2022/04/02 02:04:17;;;;;;;;;;;1.70;99.90;;;;;;5115773;28;20370;-43
2022/04/02 02:06:45;;;;;;;;;;;1.90;99.90;;;;;;5115990;28;19958;-45
2022/04/02 02:09:11;;;;;;;;;;;1.80;99.90;;;;;;5116028;28;19911;-44
2022/04/02 02:11:36;;;;;;;;;;;1.80;99.90;;;;;;5115635;28;20377;-44
2022/04/02 02:14:02;;;;;;;;;;;1.90;99.90;;;;;;5115788;28;19914;-44
2022/04/02 02:16:27;;;;;;;;;;;1.70;99.90;;;;;;5115513;28;20014;-45
2022/04/02 02:18:53;;;;;;;;;;;1.60;99.90;;;;;;5115797;28;19907;-44
2022/04/02 02:21:18;;;;;;;;;;;1.60;99.90;;;;;;5115640;28;19908;-42
2022/04/02 02:23:44;;;;;;;;;;;1.60;99.90;;;;;;5115667;28;20342;-44
2022/04/02 02:26:09;;;;;;;;;;;1.40;99.90;;;;;;5115898;28;19911;-44
2022/04/02 02:28:35;;;;;;;;;;;1.30;99.90;;;;;;5115276;28;19943;-44
2022/04/02 02:31:00;;;;;;;;;;;1.30;99.90;;;;;;5115355;28;19995;-47
2022/04/02 02:36:25;;;;;;;;;;;1.30;99.90;;;;;;5102643;28;19951;-44
2022/04/02 02:38:51;;;;;;;;;;;1.30;99.90;;;;;;5115384;28;19957;-45
2022/04/02 02:41:16;;;;;;;;;;;1.30;99.90;;;;;;5115344;28;20312;-47
2022/04/02 02:43:42;;;;;;;;;;;1.30;99.90;;;;;;5115737;28;19912;-46
2022/04/02 02:46:08;;;;;;;;;;;1.20;99.90;;;;;;5115049;28;19915;-44
2022/04/02 02:48:34;;;;;;;;;;;1.20;99.90;;;;;;5115203;28;19908;-43
2022/04/02 02:51:00;;;;;;;;;;;1.20;99.90;;;;;;5115091;28;20354;-45
2022/04/02 02:53:25;;;;;;;;;;;1.20;99.90;;;;;;5113765;28;19915;-43
2022/04/02 02:55:51;;;;;;;;;;;1.20;99.90;;;;;;5115115;28;19920;-43
2022/04/02 02:58:16;;;;;;;;;;;1.10;99.90;;;;;;5114980;28;19951;-44
2022/04/02 03:00:43;;;;;;;;;;;1.10;99.90;;;;;;5114704;28;20342;-45
2022/04/02 03:03:09;;;;;;;;;;;1.20;99.90;;;;;;5114981;28;19918;-45
2022/04/02 03:05:35;;;;;;;;;;;1.10;99.90;;;;;;5114924;28;19912;-45
2022/04/02 03:08:01;;;;;;;;;;;1.00;99.90;;;;;;5113612;28;19918;-45
2022/04/02 03:10:27;;;;;;;;;;;1.00;99.90;;;;;;5113370;28;19950;-43
2022/04/02 03:12:54;;;;;;;;;;;1.10;99.90;;;;;;5114807;28;20335;-44
2022/04/02 03:15:19;;;;;;;;;;;1.30;99.90;;;;;;5114684;28;19915;-43
2022/04/02 03:17:46;;;;;;;;;;;1.30;99.90;;;;;;5114672;28;19908;-44
2022/04/02 03:20:12;;;;;;;;;;;1.00;99.90;;;;;;5114521;28;19908;-44
2022/04/02 03:22:41;;;;;;;;;;;0.90;99.90;;;;;;5114531;28;19912;-43
2022/04/02 03:25:08;;;;;;;;;;;0.90;99.90;;;;;;5114595;28;19991;-44
2022/04/02 03:27:34;;;;;;;;;;;0.90;99.90;;;;;;5114503;28;19908;-45
2022/04/02 03:30:00;;;;;;;;;;;0.90;99.90;;;;;;5114191;28;19937;-45
2022/04/02 03:32:25;;;;;;;;;;;1.00;99.90;;;;;;5114604;28;19968;-45
2022/04/02 03:34:51;;;;;;;;;;;0.90;99.90;;;;;;5114267;28;20049;-44
2022/04/02 03:37:16;;;;;;;;;;;0.90;99.90;;;;;;5114830;28;19908;-47
2022/04/02 03:39:42;;;;;;;;;;;1.00;99.90;;;;;;5114111;28;19977;-44
2022/04/02 03:42:09;;;;;;;;;;;1.00;99.90;;;;;;5113739;28;20007;-43
2022/04/02 03:44:34;;;;;;;;;;;0.90;99.90;;;;;;5114333;28;19912;-44
2022/04/02 03:47:08;;;;;;;;;;;1.00;99.90;;;;;;5114339;28;20026;-47
2022/04/02 03:49:35;;;;;;;;;;;0.80;99.90;;;;;;5114356;28;19915;-43
2022/04/02 03:52:01;;;;;;;;;;;1.00;99.90;;;;;;5114139;28;19998;-43
2022/04/02 03:54:26;;;;;;;;;;;1.00;99.90;;;;;;5114009;28;19946;-44
2022/04/02 03:56:52;;;;;;;;;;;0.90;99.90;;;;;;5114263;28;20310;-46
2022/04/02 03:59:18;;;;;;;;;;;1.00;99.90;;;;;;5114295;28;19914;-44
2022/04/02 04:01:44;;;;;;;;;;;1.00;99.90;;;;;;5114197;28;19912;-45
2022/04/02 04:04:10;;;;;;;;;;;0.90;99.90;;;;;;5114065;28;19937;-43
2022/04/02 04:06:37;;;;;;;;;;;0.70;99.90;;;;;;5114145;28;19908;-44
2022/04/02 04:09:03;;;;;;;;;;;0.60;99.90;;;;;;5114145;28;19908;-43
2022/04/02 04:11:29;;;;;;;;;;;0.50;99.90;;;;;;5113851;28;19915;-44
2022/04/02 04:13:56;;;;;;;;;;;0.60;99.90;;;;;;5114371;28;19908;-44
2022/04/02 04:16:21;;;;;;;;;;;0.60;99.90;;;;;;5114052;28;19914;-44
2022/04/02 04:18:47;;;;;;;;;;;0.60;99.90;;;;;;5114048;28;20350;-43
2022/04/02 04:21:14;;;;;;;;;;;0.60;99.90;;;;;;5113698;28;19915;-43
2022/04/02 04:23:43;;;;;;;;;;;0.50;99.90;;;;;;5113846;28;19951;-43
2022/04/02 04:26:09;;;;;;;;;;;0.50;99.90;;;;;;5113595;28;19961;-44
2022/04/02 04:28:34;;;;;;;;;;;0.50;99.90;;;;;;5113923;28;19908;-44
2022/04/02 04:31:01;;;;;;;;;;;0.50;99.90;;;;;;5113541;28;19969;-43
2022/04/02 04:33:26;;;;;;;;;;;0.50;99.90;;;;;;5113844;28;19908;-45
2022/04/02 04:35:52;;;;;;;;;;;0.50;99.90;;;;;;5113269;28;20316;-42
2022/04/02 04:38:17;;;;;;;;;;;0.50;99.90;;;;;;5113532;28;19907;-44
2022/04/02 04:40:43;;;;;;;;;;;0.40;99.90;;;;;;5113970;28;19908;-43
2022/04/02 04:43:08;;;;;;;;;;;0.40;99.90;;;;;;5113755;28;19958;-43
2022/04/02 04:45:33;;;;;;;;;;;0.40;99.90;;;;;;5113777;28;20253;-44
2022/04/02 04:47:59;;;;;;;;;;;0.40;99.90;;;;;;5112347;28;20270;-43
2022/04/02 04:50:25;;;;;;;;;;;0.50;99.90;;;;;;5113267;28;19908;-43
2022/04/02 04:52:50;;;;;;;;;;;0.40;99.90;;;;;;5113506;28;19919;-43
2022/04/02 04:55:16;;;;;;;;;;;0.40;99.90;;;;;;5117516;28;19908;-44
2022/04/02 04:57:41;;;;;;;;;;;0.50;99.90;;;;;;5116916;28;19908;-45
2022/04/02 05:00:07;;;;;;;;;;;0.50;99.90;;;;;;5117005;28;19908;-45
2022/04/02 05:02:33;;;;;;;;;;;0.50;99.90;;;;;;5117262;28;19911;-43
2022/04/02 05:04:58;;;;;;;;;;;0.50;99.90;;;;;;5117297;28;19912;-43
2022/04/02 05:07:24;;;;;;;;;;;0.60;99.90;;;;;;5117288;28;19908;-42
2022/04/02 05:09:50;;;;;;;;;;;0.60;99.90;;;;;;5115894;28;19977;-42
2022/04/02 05:12:15;;;;;;;;;;;0.60;99.90;;;;;;5117536;28;19907;-43
2022/04/02 05:14:41;;;;;;;;;;;0.50;99.90;;;;;;5116798;28;19907;-44
2022/04/02 05:17:07;;;;;;;;;;;0.70;99.90;;;;;;5116733;28;19911;-44
2022/04/02 05:19:32;;;;;;;;;;;0.60;99.90;;;;;;5116691;28;20258;-46
2022/04/02 05:21:58;;;;;;;;;;;0.50;99.90;;;;;;5116659;28;19923;-45
2022/04/02 05:24:24;;;;;;;;;;;0.60;99.90;;;;;;5116879;28;19926;-45
2022/04/02 05:26:50;;;;;;;;;;;0.70;99.90;;;;;;5116797;28;20406;-45
2022/04/02 05:29:15;;;;;;;;;;;0.50;99.90;;;;;;5116075;28;19998;-42
2022/04/02 05:31:41;;;;;;;;;;;0.50;99.90;;;;;;5116591;28;20000;-43
2022/04/02 05:34:08;;;;;;;;;;;0.60;99.90;;;;;;5116393;28;19912;-43
2022/04/02 05:36:34;;;;;;;;;;;0.60;99.90;;;;;;5116770;28;19915;-44
2022/04/02 05:38:59;;;;;;;;;;;0.60;99.90;;;;;;5115289;28;19908;-44
2022/04/02 05:41:25;;;;;;;;;;;0.60;99.90;;;;;;5116024;28;20075;-44
2022/04/02 05:43:50;;;;;;;;;;;0.70;99.90;;;;;;5116448;28;19916;-44
2022/04/02 05:46:16;;;;;;;;;;;0.70;99.90;;;;;;5116105;28;20341;-43
2022/04/02 05:48:42;;;;;;;;;;;0.50;99.90;;;;;;5116094;28;20281;-42
2022/04/02 05:51:08;;;;;;;;;;;0.30;99.90;;;;;;5116612;28;19908;-42
2022/04/02 05:53:33;;;;;;;;;;;0.30;99.90;;;;;;5116243;28;19907;-44
2022/04/02 05:55:59;;;;;;;;;;;0.50;99.90;;;;;;5116103;28;20441;-43
2022/04/02 05:58:25;;;;;;;;;;;0.30;99.90;;;;;;5114786;28;19908;-44
2022/04/02 06:00:50;;;;;;;;;;;0.30;99.90;;;;;;5115679;28;19912;-43
2022/04/02 06:03:16;;;;;;;;;;;0.40;99.90;;;;;;5115794;28;19912;-47
2022/04/02 06:05:42;;;;;;;;;;;0.60;99.90;;;;;;5115602;28;20474;-44
2022/04/02 06:08:07;;;;;;;;;;;0.30;99.90;;;;;;5114719;28;19908;-45
2022/04/02 06:10:33;;;;;;;;;;;0.30;99.90;;;;;;5115689;28;19930;-44
2022/04/02 06:12:58;;;;;;;;;;;0.40;99.90;;;;;;5115589;28;19941;-45
2022/04/02 06:15:24;;;;;;;;;;;0.50;99.90;;;;;;5115875;28;19976;-44
2022/04/02 06:17:51;;;;;;;;;;;0.60;99.90;;;;;;5115511;28;20422;-44
2022/04/02 06:20:16;;;;;;;;;;;0.60;99.90;;;;;;5115254;28;20278;-44
2022/04/02 06:22:42;;;;;;;;;;;0.60;99.90;;;;;;5115508;28;19937;-45
2022/04/02 06:25:08;;;;;;;;;;;0.50;99.90;;;;;;5115380;28;19912;-44
2022/04/02 06:27:39;;;;;;;;;;;0.50;99.90;;;;;;5115448;28;20002;-44
2022/04/02 06:30:05;;;;;;;;;;;0.70;99.90;;;;;;5115444;28;19914;-45
2022/04/02 06:32:31;;;;;;;;;;;0.50;99.90;;;;;;5115584;28;20406;-44
2022/04/02 06:34:56;;;;;;;;;;;0.70;99.90;;;;;;5115433;28;20247;-44
2022/04/02 06:37:21;;;;;;;;;;;0.90;99.90;;;;;;5113976;28;19919;-43
2022/04/02 06:39:47;;;;;;;;;;;0.80;99.90;;;;;;5115101;28;19907;-44
2022/04/02 06:42:12;;;;;;;;;;;0.80;99.90;;;;;;5115137;28;19911;-43
2022/04/02 06:44:38;;;;;;;;;;;0.70;99.90;;;;;;5114997;28;20333;-45
2022/04/02 06:47:04;;;;;;;;;;;0.60;99.90;;;;;;5114982;28;20239;-44
2022/04/02 06:49:30;;;;;;;;;;;0.80;99.90;;;;;;5114620;28;19998;-42
2022/04/02 06:51:56;;;;;;;;;;;0.90;99.90;;;;;;5114656;28;19943;-44
2022/04/02 06:54:22;;;;;;;;;;;1.00;99.90;;;;;;5114838;28;19915;-43
2022/04/02 06:56:48;;;;;;;;;;;1.10;99.90;;;;;;5114726;28;19912;-46
2022/04/02 06:59:14;;;;;;;;;;;1.00;99.90;;;;;;5114861;28;19908;-45
2022/04/02 07:01:39;;;;;;;;;;;1.10;99.90;;;;;;5114555;28;19938;-43
2022/04/02 07:04:05;;;;;;;;;;;0.90;99.90;;;;;;5114725;28;19912;-43
2022/04/02 07:06:34;;;;;;;;;;;0.70;99.90;;;;;;5114361;28;19960;-45
2022/04/02 07:08:59;;;;;;;;;;;0.60;99.90;;;;;;5114305;28;19941;-44
2022/04/02 07:11:25;;;;;;;;;;;0.40;99.90;;;;;;5114094;28;19919;-46
2022/04/02 07:13:50;;;;;;;;;;;0.40;99.90;;;;;;5114007;28;19930;-43
2022/04/02 07:16:16;;;;;;;;;;;0.40;99.90;;;;;;5113530;28;19908;-44
2022/04/02 07:18:43;;;;;;;;;;;0.40;99.90;;;;;;5114203;28;19976;-42
2022/04/02 07:21:11;;;;;;;;;;;0.50;99.90;;;;;;5112902;28;19908;-43
2022/04/02 07:23:38;;;;;;;;;;;0.40;99.90;;;;;;5112842;28;20002;-44
2022/04/02 07:26:04;;;;;;;;;;;0.30;99.90;;;;;;5113965;28;19974;-43
2022/04/02 07:28:30;;;;;;;;;;;0.30;99.90;;;;;;5114049;28;19972;-42
2022/04/02 07:30:56;;;;;;;;;;;0.40;99.90;;;;;;5113840;28;20366;-46
2022/04/02 07:33:21;;;;;;;;;;;0.50;99.90;;;;;;5114058;28;20002;-46
2022/04/02 07:35:54;;;;;;;;;;;0.60;99.90;;;;;;5113820;28;19953;-44
2022/04/02 07:38:22;;;;;;;;;;;0.60;99.90;;;;;;5114210;28;19912;-43
2022/04/02 07:41:06;;;;;;;;;;;0.30;99.90;;;;;;5112831;28;19912;-44
2022/04/02 07:43:54;;;;;;;;;;;0.60;99.90;;;;;;5113894;28;20002;-44
2022/04/02 07:46:25;;;;;;;;;;;0.90;99.90;;;;;;5113680;28;20042;-44
2022/04/02 07:48:51;;;;;;;;;;;1.10;99.90;;;;;;5113765;28;19920;-44
2022/04/02 07:51:18;;;;;;;;;;;1.00;99.90;;;;;;5113471;28;20351;-45
2022/04/02 07:53:45;;;;;;;;;;;1.10;99.90;;;;;;5112522;28;20266;-43
2022/04/02 07:56:26;;;;;;;;;;;1.30;99.90;;;;;;5113473;28;19953;-43
2022/04/02 07:58:52;;;;;;;;;;;1.40;99.90;;;;;;5113651;28;20278;-44
2022/04/02 08:01:18;;;;;;;;;;;1.50;99.90;;;;;;5113538;28;20345;-45
2022/04/02 08:03:45;;;;;;;;;;;1.60;99.90;;;;;;5114279;28;19962;-45
2022/04/02 08:06:11;;;;;;;;;;;1.70;99.90;;;;;;5113777;28;19926;-44
2022/04/02 08:08:37;;;;;;;;;;;2.10;99.90;;;;;;5113506;28;19919;-45
2022/04/02 08:11:02;;;;;;;;;;;2.30;99.90;;;;;;5112544;28;19908;-44
2022/04/02 08:13:29;;;;;;;;;;;2.50;99.90;;;;;;5113738;28;19914;-44
2022/04/02 08:15:56;;;;;;;;;;;2.70;99.90;;;;;;5113362;28;20429;-44
2022/04/02 08:18:28;;;;;;;;;;;2.70;99.90;;;;;;5112253;28;19907;-47
2022/04/02 08:20:54;;;;;;;;;;;2.50;99.90;;;;;;5113650;28;20386;-45
2022/04/02 08:23:20;;;;;;;;;;;1.90;99.90;;;;;;5113202;28;19918;-44
2022/04/02 08:26:05;;;;;;;;;;;1.50;99.90;;;;;;5113679;28;20338;-45
2022/04/02 08:28:50;;;;;;;;;;;1.40;99.90;;;;;;5115399;28;19908;-44
2022/04/02 08:31:21;;;;;;;;;;;1.10;99.90;;;;;;5117233;28;19933;-44
2022/04/02 08:34:04;;;;;;;;;;;1.30;99.90;;;;;;5117529;28;19955;-43
2022/04/02 08:36:29;;;;;;;;;;;1.00;99.90;;;;;;5117466;28;19914;-45
2022/04/02 08:39:17;;;;;;;;;;;1.20;99.90;;;;;;5117261;28;20321;-45
2022/04/02 08:42:02;;;;;;;;;;;1.20;99.90;;;;;;5117519;28;19912;-45
2022/04/02 08:44:33;;;;;;;;;;;1.40;99.90;;;;;;5117329;28;20338;-43
2022/04/02 08:47:01;;;;;;;;;;;1.30;99.90;;;;;;5117398;28;19914;-45
2022/04/02 08:49:34;;;;;;;;;;;1.20;99.90;;;;;;5116632;28;19922;-45
2022/04/02 08:52:02;;;;;;;;;;;1.20;99.90;;;;;;5116962;28;19908;-44
2022/04/02 08:54:28;;;;;;;;;;;1.30;99.90;;;;;;5116999;28;20273;-43
2022/04/02 08:56:55;;;;;;;;;;;1.40;99.90;;;;;;5116878;28;19908;-43
2022/04/02 08:59:34;;;;;;;;;;;1.30;99.90;;;;;;5116956;28;19911;-45
2022/04/02 09:02:18;;;;;;;;;;;1.20;99.90;;;;;;5116484;28;20006;-44
2022/04/02 09:04:44;;;;;;;;;;;1.40;99.90;;;;;;5116768;28;19919;-43
2022/04/02 09:07:30;;;;;;;;;;;1.30;99.90;;;;;;5116779;28;19911;-43
2022/04/02 09:09:58;;;;;;;;;;;1.00;99.90;;;;;;5116767;28;19965;-44
2022/04/02 09:12:38;;;;;;;;;;;1.00;99.90;;;;;;5116555;28;20358;-45
2022/04/02 09:15:11;;;;;;;;;;;1.40;99.90;;;;;;5116584;28;19908;-44
2022/04/02 09:17:36;;;;;;;;;;;2.10;99.90;;;;;;5116539;28;19907;-45
2022/04/02 09:20:05;;;;;;;;;;;2.60;99.90;;;;;;5116920;28;19930;-45
2022/04/02 09:22:42;;;;;;;;;;;2.80;99.90;;;;;;5116023;28;19915;-43
2022/04/02 09:25:07;;;;;;;;;;;2.90;99.90;;;;;;5116357;28;19912;-43
2022/04/02 09:27:52;;;;;;;;;;;2.70;99.90;;;;;;5116214;28;19907;-45
2022/04/02 09:30:17;;;;;;;;;;;2.70;99.90;;;;;;5115790;28;19908;-44
2022/04/02 09:33:02;;;;;;;;;;;2.90;99.90;;;;;;5116377;28;19908;-43
2022/04/02 09:35:39;;;;;;;;;;;2.80;99.90;;;;;;5115960;28;19908;-44
2022/04/02 09:38:12;;;;;;;;;;;2.40;99.90;;;;;;5115655;28;19927;-44
2022/04/02 09:40:48;;;;;;;;;;;2.30;99.90;;;;;;5115206;28;19908;-51
2022/04/02 09:43:24;;;;;;;;;;;2.20;99.90;;;;;;5115951;28;19911;-45
2022/04/02 09:46:06;;;;;;;;;;;1.90;99.90;;;;;;5116021;28;19912;-45
2022/04/02 09:48:38;;;;;;;;;;;1.70;99.90;;;;;;5115398;28;19907;-46
2022/04/02 09:51:07;;;;;;;;;;;1.60;99.90;;;;;;5115728;28;19954;-44
2022/04/02 09:53:36;;;;;;;;;;;1.50;99.90;;;;;;5115655;28;19908;-46
2022/04/02 09:56:11;;;;;;;;;;;1.30;99.90;;;;;;5115625;28;20366;-44
2022/04/02 09:58:46;;;;;;;;;;;1.30;99.90;;;;;;5113971;28;20002;-46
2022/04/02 10:01:32;;;;;;;;;;;1.40;99.90;;;;;;5115137;28;19915;-46
2022/04/02 10:03:59;;;;;;;;;;;1.70;99.90;;;;;;5072416;28;19916;-44
2022/04/02 10:06:27;;;;;;;;;;;1.70;99.90;;;;;;5114534;28;19908;-44
2022/04/02 10:08:53;;;;;;;;;;;1.50;99.90;;;;;;5115045;28;19907;-45
2022/04/02 10:11:19;;;;;;;;;;;1.30;99.90;;;;;;5114900;28;19989;-43
2022/04/02 10:13:44;;;;;;;;;;;1.30;99.90;;;;;;5114800;28;19922;-45
2022/04/02 10:16:12;;;;;;;;;;;1.40;99.90;;;;;;5114970;28;20002;-42
2022/04/02 10:18:38;;;;;;;;;;;1.20;99.90;;;;;;5115412;28;20022;-43
2022/04/02 10:21:05;;;;;;;;;;;1.10;99.90;;;;;;5114840;28;19955;-43
2022/04/02 10:23:32;;;;;;;;;;;1.30;99.90;;;;;;5115009;28;19916;-44
2022/04/02 10:26:13;;;;;;;;;;;1.50;99.90;;;;;;5115249;28;19934;-44
2022/04/02 10:28:55;;;;;;;;;;;1.70;99.90;;;;;;5114861;28;20315;-43
2022/04/02 10:31:35;;;;;;;;;;;1.50;99.90;;;;;;5114886;28;19931;-44
2022/04/02 10:34:09;;;;;;;;;;;1.30;99.90;;;;;;5114778;28;19926;-44
2022/04/02 10:36:38;;;;;;;;;;;1.20;99.90;;;;;;5113350;28;20269;-46
2022/04/02 10:39:03;;;;;;;;;;;1.20;99.90;;;;;;5113129;28;19915;-43
2022/04/02 10:41:30;;;;;;;;;;;1.10;99.90;;;;;;5114240;28;19912;-45
2022/04/02 10:44:00;;;;;;;;;;;1.30;99.90;;;;;;5114886;28;19916;-44
2022/04/02 10:46:26;;;;;;;;;;;1.30;99.90;;;;;;5114125;28;19953;-44
2022/04/02 10:48:54;;;;;;;;;;;1.30;99.90;;;;;;5114600;28;19907;-44
2022/04/02 10:51:25;;;;;;;;;;;1.20;99.90;;;;;;5113840;28;19912;-44
2022/04/02 10:53:58;;;;;;;;;;;1.40;99.90;;;;;;5114949;28;19935;-45
2022/04/02 10:56:27;;;;;;;;;;;1.60;99.90;;;;;;5114236;28;19931;-44
2022/04/02 10:58:54;;;;;;;;;;;1.60;99.90;;;;;;5113964;28;20377;-44
2022/04/02 11:01:21;;;;;;;;;;;1.40;99.90;;;;;;5114295;28;19965;-44
2022/04/02 11:03:54;;;;;;;;;;;1.20;99.90;;;;;;5114007;28;19912;-44
2022/04/02 11:06:56;;;;;;;;;;;1.30;99.90;;;;;;5114029;28;19912;-44
2022/04/02 11:09:25;;;;;;;;;;;1.40;99.90;;;;;;5050747;28;19995;-49
2022/04/02 11:11:52;;;;;;;;;;;1.50;99.90;;;;;;5102195;28;19971;-45
2022/04/02 11:14:20;;;;;;;;;;;1.50;99.90;;;;;;5113822;28;20385;-44
2022/04/02 11:16:46;;;;;;;;;;;1.50;99.90;;;;;;5112605;28;20354;-44
2022/04/02 11:22:09;;;;;;;;;;;1.20;99.90;;;;;;5113793;28;20324;-45
2022/04/02 11:24:40;;;;;;;;;;;1.10;99.90;;;;;;5113760;28;19912;-43
2022/04/02 11:27:06;;;;;;;;;;;1.20;99.90;;;;;;5112273;28;19908;-44
2022/04/02 11:29:33;;;;;;;;;;;1.40;99.90;;;;;;5113419;28;19908;-44
2022/04/02 11:32:00;;;;;;;;;;;1.50;99.90;;;;;;5114129;28;20322;-43
2022/04/02 11:34:27;;;;;;;;;;;1.30;99.90;;;;;;5112522;28;19954;-44
2022/04/02 11:36:58;;;;;;;;;;;1.30;99.90;;;;;;5113855;28;19907;-44
2022/04/02 11:39:36;;;;;;;;;;;1.60;99.90;;;;;;5112415;28;20376;-46
2022/04/02 11:42:03;;;;;;;;;;;1.80;99.90;;;;;;5113486;28;20399;-44
2022/04/02 11:44:36;;;;;;;;;;;1.80;99.90;;;;;;5113667;28;19912;-46
2022/04/02 11:47:06;;;;;;;;;;;2.00;99.90;;;;;;5113500;28;19907;-43
2022/04/02 11:49:31;;;;;;;;;;;2.10;99.90;;;;;;5113635;28;19908;-49
2022/04/02 11:52:10;;;;;;;;;;;1.70;99.90;;;;;;5113451;28;19915;-42
2022/04/02 11:54:38;;;;;;;;;;;1.70;99.90;;;;;;5113610;28;19908;-44
2022/04/02 11:57:07;;;;;;;;;;;1.70;99.90;;;;;;5113135;28;19908;-43
2022/04/02 11:59:34;;;;;;;;;;;1.40;99.90;;;;;;5113452;28;19919;-43
2022/04/02 12:02:00;;;;;;;;;;;1.40;99.90;;;;;;5112288;28;19912;-44
2022/04/02 12:04:26;;;;;;;;;;;1.40;99.90;;;;;;5117718;28;19965;-42
2022/04/02 12:06:52;;;;;;;;;;;1.30;99.90;;;;;;5117454;28;19999;-45
2022/04/02 12:09:24;;;;;;;;;;;1.30;99.90;;;;;;5117340;28;19994;-45
2022/04/02 12:11:50;;;;;;;;;;;1.40;99.90;;;;;;5117243;28;19908;-47
2022/04/02 12:14:28;;;;;;;;;;;1.50;99.90;;;;;;5117531;28;19915;-44
2022/04/02 12:17:00;;;;;;;;;;;1.60;99.90;;;;;;5117564;28;19931;-45
2022/04/02 12:19:40;;;;;;;;;;;1.50;99.90;;;;;;5117478;28;19908;-43
2022/04/02 12:22:15;;;;;;;;;;;1.40;99.90;;;;;;5117583;28;20270;-45
2022/04/02 12:24:43;;;;;;;;;;;1.60;99.90;;;;;;5117321;28;19912;-48
2022/04/02 12:27:09;;;;;;;;;;;1.40;99.90;;;;;;5117179;28;19907;-45
2022/04/02 12:29:35;;;;;;;;;;;1.60;99.90;;;;;;5117691;28;19908;-45
2022/04/02 12:32:01;;;;;;;;;;;1.90;99.90;;;;;;5117750;28;19924;-47
2022/04/02 12:34:27;;;;;;;;;;;1.70;99.90;;;;;;5117006;28;19954;-44
2022/04/02 12:37:00;;;;;;;;;;;1.70;99.90;;;;;;5117416;28;19911;-43
2022/04/02 12:39:26;;;;;;;;;;;1.70;99.90;;;;;;5117106;28;19908;-46
2022/04/02 12:41:51;;;;;;;;;;;2.00;99.90;;;;;;5116778;28;19941;-45
2022/04/02 12:44:20;;;;;;;;;;;2.00;99.90;;;;;;5117148;28;19912;-45
2022/04/02 12:46:46;;;;;;;;;;;2.10;99.90;;;;;;5117185;28;19907;-46
2022/04/02 12:49:31;;;;;;;;;;;2.00;99.90;;;;;;5117249;28;19923;-46
2022/04/02 12:52:09;;;;;;;;;;;2.20;99.90;;;;;;5117243;28;19907;-44
2022/04/02 12:54:34;;;;;;;;;;;1.70;99.90;;;;;;5117135;28;19908;-43
2022/04/02 12:57:13;;;;;;;;;;;1.30;99.90;;;;;;5116522;28;19957;-43
2022/04/02 12:59:43;;;;;;;;;;;1.50;99.90;;;;;;5115829;28;19908;-44
2022/04/02 13:02:10;;;;;;;;;;;1.60;99.90;;;;;;5116824;28;20006;-44
2022/04/02 13:04:39;;;;;;;;;;;1.50;99.90;;;;;;5116881;28;19992;-44
2022/04/02 13:07:10;;;;;;;;;;;1.70;99.90;;;;;;5116300;28;19908;-45
2022/04/02 13:09:37;;;;;;;;;;;1.80;99.90;;;;;;5116583;28;20273;-43
2022/04/02 13:12:03;;;;;;;;;;;1.50;99.90;;;;;;5117338;28;19915;-43
2022/04/02 13:14:42;;;;;;;;;;;1.80;99.90;;;;;;5115439;28;19908;-45
2022/04/02 13:17:08;;;;;;;;;;;1.90;99.90;;;;;;5116391;28;19908;-44
2022/04/02 13:22:37;;;;;;;;;;;2.10;99.90;;;;;;5116477;28;20281;-43
2022/04/02 13:25:09;;;;;;;;;;;1.90;99.90;;;;;;5116696;28;19913;-43
2022/04/02 13:27:53;;;;;;;;;;;1.80;99.90;;;;;;5116025;28;19908;-44
2022/04/02 13:30:18;;;;;;;;;;;1.70;99.90;;;;;;5115275;28;19915;-44
2022/04/02 13:32:44;;;;;;;;;;;1.70;99.90;;;;;;5116542;28;19920;-47
2022/04/02 13:35:25;;;;;;;;;;;1.50;99.90;;;;;;5116341;28;19968;-44
2022/04/02 13:37:59;;;;;;;;;;;1.50;99.90;;;;;;5116014;28;20446;-44
2022/04/02 13:40:25;;;;;;;;;;;1.50;99.90;;;;;;5116245;28;19907;-44
2022/04/02 13:42:56;;;;;;;;;;;1.40;99.90;;;;;;5116021;28;20011;-43
2022/04/02 13:45:23;;;;;;;;;;;1.50;99.90;;;;;;5116191;28;20362;-43
2022/04/02 13:47:54;;;;;;;;;;;1.40;99.90;;;;;;5115874;28;19915;-43
2022/04/02 13:50:20;;;;;;;;;;;1.20;99.90;;;;;;5116198;28;19908;-43
2022/04/02 13:53:01;;;;;;;;;;;0.80;99.90;;;;;;5114595;28;19915;-45
2022/04/02 13:55:28;;;;;;;;;;;0.70;99.90;;;;;;5115748;28;20329;-50
2022/04/02 13:57:54;;;;;;;;;;;0.70;99.90;;;;;;5114622;28;19908;-44
2022/04/02 14:00:23;;;;;;;;;;;0.80;99.90;;;;;;5115762;28;20384;-45
2022/04/02 14:02:51;;;;;;;;;;;0.90;99.90;;;;;;5115689;28;19931;-44
2022/04/02 14:05:25;;;;;;;;;;;0.90;99.90;;;;;;5114031;28;19934;-51
2022/04/02 14:08:00;;;;;;;;;;;1.10;99.90;;;;;;5114110;28;20358;-43
2022/04/02 14:10:32;;;;;;;;;;;1.00;99.90;;;;;;5115502;28;20341;-45
2022/04/02 14:12:59;;;;;;;;;;;1.00;99.90;;;;;;5115371;28;20328;-44
2022/04/02 14:15:26;;;;;;;;;;;1.00;99.90;;;;;;5115216;28;19911;-43
2022/04/02 14:17:57;;;;;;;;;;;0.90;99.90;;;;;;5115595;28;19908;-44
2022/04/02 14:20:22;;;;;;;;;;;0.90;99.90;;;;;;5115522;28;20044;-47
2022/04/02 14:22:48;;;;;;;;;;;0.80;99.90;;;;;;5115039;28;19915;-43
2022/04/02 14:25:23;;;;;;;;;;;0.50;99.90;;;;;;5114775;28;19912;-42
2022/04/02 14:27:48;;;;;;;;;;;0.50;99.90;;;;;;5114685;28;19908;-42
2022/04/02 14:30:14;;;;;;;;;;;0.60;99.90;;;;;;5115112;28;19915;-44
2022/04/02 14:32:58;;;;;;;;;;;0.50;99.90;;;;;;5114776;28;19976;-42
2022/04/02 14:35:32;;;;;;;;;;;0.50;99.90;;;;;;5115100;28;19915;-43
2022/04/02 14:38:11;;;;;;;;;;;0.30;99.90;;;;;;5114837;28;19908;-45
2022/04/02 14:40:55;;;;;;;;;;;0.30;99.90;;;;;;5115100;28;19915;-45
2022/04/02 14:43:27;;;;;;;;;;;0.40;99.90;;;;;;5115021;28;19919;-45
2022/04/02 14:46:19;;;;;;;;;;;0.50;99.90;;;;;;5115002;28;20364;-44